createdAt,value
2022-11-01T00:02:00.107Z,23.25
2022-11-01T00:04:26.866Z,17.42
2022-11-01T00:06:53.674Z,18.65
2022-11-01T00:09:20.433Z,16.08
2022-11-01T00:11:47.260Z,24.45
2022-11-01T00:14:15.697Z,25.27
2022-11-01T00:16:42.858Z,23.13
2022-11-01T00:19:10.256Z,24.85
2022-11-01T00:21:36.921Z,21.80
2022-11-01T00:24:03.996Z,27.00
2022-11-01T00:26:30.658Z,31.98
2022-11-01T00:28:57.223Z,26.40
2022-11-01T00:31:24.310Z,28.48
2022-11-01T00:33:51.145Z,24.92
2022-11-01T00:36:18.025Z,22.35
2022-11-01T00:38:44.572Z,26.63
2022-11-01T00:41:11.219Z,32.28
2022-11-01T00:43:37.954Z,21.17
2022-11-01T00:46:05.198Z,21.20
2022-11-01T00:48:32.160Z,20.27
2022-11-01T00:50:58.831Z,25.27
2022-11-01T00:53:25.495Z,20.73
2022-11-01T00:55:52.181Z,22.65
2022-11-01T00:58:18.793Z,28.15
2022-11-01T01:00:47.298Z,26.17
2022-11-01T01:03:13.879Z,22.52
2022-11-01T01:05:40.479Z,24.73
2022-11-01T01:08:07.043Z,26.80
2022-11-01T01:10:33.531Z,27.17
2022-11-01T01:13:00.454Z,24.98
2022-11-01T01:15:27.581Z,20.00
2022-11-01T01:17:54.385Z,18.33
2022-11-01T01:20:21.920Z,22.05
2022-11-01T01:22:48.517Z,22.75
2022-11-01T01:25:15.769Z,22.73
2022-11-01T01:27:42.368Z,21.38
2022-11-01T01:30:09.579Z,24.85
2022-11-01T01:32:36.434Z,21.95
2022-11-01T01:35:03.124Z,23.77
2022-11-01T01:37:29.723Z,19.38
2022-11-01T01:39:56.356Z,21.13
2022-11-01T01:42:35.061Z,18.88
2022-11-01T01:47:36.641Z,17.15
2022-11-01T01:50:09.191Z,26.70
2022-11-01T01:52:42.805Z,24.08
2022-11-01T01:55:11.372Z,22.25
2022-11-01T01:57:40.113Z,20.90
2022-11-01T02:00:07.919Z,19.88
2022-11-01T02:02:34.522Z,17.58
2022-11-01T02:05:06.486Z,17.27
2022-11-01T02:07:33.194Z,22.20
2022-11-01T02:10:00.075Z,21.17
2022-11-01T02:12:34.114Z,20.27
2022-11-01T02:15:01.502Z,19.65
2022-11-01T02:17:41.916Z,23.27
2022-11-01T02:20:17.335Z,19.73
2022-11-01T02:22:53.130Z,21.73
2022-11-01T02:25:38.307Z,27.15
2022-11-01T02:28:22.156Z,19.88
2022-11-01T02:31:13.315Z,23.92
2022-11-01T02:33:45.262Z,20.25
2022-11-01T02:36:17.489Z,22.00
2022-11-01T02:38:51.238Z,20.23
2022-11-01T02:41:23.705Z,22.23
2022-11-01T02:44:03.003Z,24.02
2022-11-01T02:46:55.009Z,17.90
2022-11-01T02:49:23.700Z,15.60
2022-11-01T02:51:51.308Z,18.98
2022-11-01T02:54:22.106Z,22.48
2022-11-01T02:56:50.754Z,20.90
2022-11-01T02:59:24.441Z,14.85
2022-11-01T03:01:59.599Z,15.63
2022-11-01T03:04:26.461Z,15.82
2022-11-01T03:06:59.273Z,26.33
2022-11-01T03:09:27.368Z,18.70
2022-11-01T03:12:08.195Z,13.30
2022-11-01T03:14:37.504Z,25.88
2022-11-01T03:17:23.146Z,25.42
2022-11-01T03:19:52.127Z,15.52
2022-11-01T03:22:19.022Z,23.20
2022-11-01T03:24:50.657Z,19.02
2022-11-01T03:27:35.418Z,19.67
2022-11-01T03:30:09.916Z,18.13
2022-11-01T03:32:41.463Z,23.75
2022-11-01T03:35:13.975Z,18.58
2022-11-01T03:37:44.471Z,19.70
2022-11-01T03:40:14.381Z,21.73
2022-11-01T03:42:45.401Z,23.95
2022-11-01T03:45:14.708Z,27.52
2022-11-01T03:47:41.820Z,34.22
2022-11-01T03:50:17.190Z,30.73
2022-11-01T03:52:43.893Z,36.42
2022-11-01T03:55:20.459Z,30.05
2022-11-01T03:57:48.215Z,30.60
2022-11-01T04:00:21.556Z,24.77
2022-11-01T04:02:52.941Z,28.05
2022-11-01T04:05:20.768Z,32.85
2022-11-01T04:07:47.987Z,34.63
2022-11-01T04:10:15.161Z,26.73
2022-11-01T04:12:45.363Z,29.20
2022-11-01T04:15:30.952Z,40.10
2022-11-01T04:18:42.691Z,31.55
2022-11-01T04:21:21.556Z,31.80
2022-11-01T04:26:18.094Z,26.45
2022-11-01T04:28:56.818Z,26.35
2022-11-01T04:31:33.069Z,38.50
2022-11-01T04:34:00.766Z,38.00
2022-11-01T04:36:28.005Z,30.08
2022-11-01T04:38:56.317Z,27.27
2022-11-01T04:41:24.722Z,33.38
2022-11-01T04:43:54.184Z,27.70
2022-11-01T04:46:21.088Z,36.00
2022-11-01T04:48:47.685Z,32.53
2022-11-01T04:51:14.341Z,33.30
2022-11-01T04:53:41.093Z,31.65
2022-11-01T04:56:11.168Z,26.05
2022-11-01T04:58:42.996Z,30.40
2022-11-01T05:01:14.455Z,31.58
2022-11-01T05:03:41.422Z,29.73
2022-11-01T05:06:08.118Z,33.90
2022-11-01T05:08:35.316Z,30.35
2022-11-01T05:11:02.029Z,26.35
2022-11-01T05:13:29.203Z,32.30
2022-11-01T05:16:20.025Z,34.00
2022-11-01T05:18:42.973Z,29.25
2022-11-01T05:21:09.581Z,37.72
2022-11-01T05:23:36.102Z,25.67
2022-11-01T05:26:02.750Z,24.70
2022-11-01T05:28:29.313Z,26.20
2022-11-01T05:30:57.964Z,23.05
2022-11-01T05:33:24.616Z,25.77
2022-11-01T05:35:51.259Z,23.77
2022-11-01T05:38:17.990Z,19.60
2022-11-01T05:40:44.782Z,22.45
2022-11-01T05:43:11.290Z,33.17
2022-11-01T05:45:37.945Z,27.95
2022-11-01T05:48:05.081Z,28.00
2022-11-01T05:50:33.955Z,26.30
2022-11-01T05:55:37.642Z,20.77
2022-11-01T05:58:04.597Z,26.00
2022-11-01T06:00:32.299Z,28.17
2022-11-01T06:03:00.777Z,23.67
2022-11-01T06:07:54.746Z,23.63
2022-11-01T06:10:21.519Z,31.48
2022-11-01T06:12:48.100Z,27.05
2022-11-01T06:15:15.026Z,30.70
2022-11-01T06:17:41.595Z,29.45
2022-11-01T06:20:08.636Z,28.45
2022-11-01T06:22:36.588Z,35.85
2022-11-01T06:25:04.315Z,29.52
2022-11-01T06:27:31.248Z,28.58
2022-11-01T06:29:57.860Z,25.70
2022-11-01T06:32:24.389Z,27.20
2022-11-01T06:34:50.922Z,29.15
2022-11-01T06:37:17.609Z,24.95
2022-11-01T06:39:44.320Z,27.95
2022-11-01T06:42:10.939Z,31.42
2022-11-01T06:44:37.487Z,31.00
2022-11-01T06:47:04.294Z,31.60
2022-11-01T06:49:31.729Z,28.60
2022-11-01T06:51:58.318Z,40.42
2022-11-01T06:54:25.665Z,31.05
2022-11-01T06:56:52.228Z,33.53
2022-11-01T06:59:19.765Z,32.50
2022-11-01T07:01:46.408Z,34.15
2022-11-01T07:04:13.191Z,35.50
2022-11-01T07:06:40.175Z,25.55
2022-11-01T07:09:06.915Z,24.88
2022-11-01T07:11:33.922Z,28.42
2022-11-01T07:14:00.762Z,31.25
2022-11-01T07:16:27.682Z,30.08
2022-11-01T07:18:54.609Z,40.15
2022-11-01T07:21:21.504Z,28.73
2022-11-01T07:23:48.104Z,30.83
2022-11-01T07:26:14.995Z,23.55
2022-11-01T07:28:41.555Z,31.00
2022-11-01T07:31:08.443Z,26.25
2022-11-01T07:33:35.062Z,25.58
2022-11-01T07:36:03.963Z,23.80
2022-11-01T07:38:30.621Z,28.70
2022-11-01T07:40:57.176Z,29.20
2022-11-01T07:43:23.970Z,28.88
2022-11-01T07:45:50.690Z,24.77
2022-11-01T07:48:18.781Z,19.00
2022-11-01T07:50:45.831Z,22.10
2022-11-01T07:53:19.238Z,18.92
2022-11-01T07:55:46.430Z,21.52
2022-11-01T07:58:14.573Z,21.83
2022-11-01T08:00:43.881Z,23.60
2022-11-01T08:03:16.261Z,23.63
2022-11-01T08:05:44.232Z,22.58
2022-11-01T08:08:11.158Z,25.40
2022-11-01T08:10:38.555Z,27.92
2022-11-01T08:13:08.070Z,27.88
2022-11-01T08:15:34.814Z,17.83
2022-11-01T08:18:02.113Z,22.95
2022-11-01T08:20:29.023Z,22.70
2022-11-01T08:22:55.811Z,23.58
2022-11-01T08:25:22.809Z,20.73
2022-11-01T08:27:49.608Z,18.67
2022-11-01T08:30:17.904Z,21.00
2022-11-01T08:32:45.231Z,20.92
2022-11-01T08:35:12.343Z,29.88
2022-11-01T08:37:51.751Z,25.85
2022-11-01T08:40:19.129Z,19.92
2022-11-01T08:42:45.878Z,22.38
2022-11-01T08:45:13.373Z,25.15
2022-11-01T08:47:40.899Z,21.45
2022-11-01T08:50:11.301Z,22.88
2022-11-01T08:52:38.589Z,26.95
2022-11-01T08:55:05.473Z,26.25
2022-11-01T08:57:32.143Z,30.05
2022-11-01T08:59:58.710Z,27.80
2022-11-01T09:02:25.575Z,26.45
2022-11-01T09:04:52.748Z,30.05
2022-11-01T09:07:19.270Z,31.88
2022-11-01T09:09:46.519Z,29.65
2022-11-01T09:12:14.709Z,30.17
2022-11-01T09:14:41.677Z,28.42
2022-11-01T09:17:08.649Z,33.17
2022-11-01T09:19:35.221Z,38.80
2022-11-01T09:22:01.739Z,26.38
2022-11-01T09:24:28.263Z,24.85
2022-11-01T09:26:54.814Z,24.23
2022-11-01T09:29:21.725Z,25.60
2022-11-01T09:31:52.878Z,26.75
2022-11-01T09:34:20.585Z,27.02
2022-11-01T09:36:47.699Z,24.37
2022-11-01T09:39:16.456Z,34.60
2022-11-01T09:41:47.661Z,33.78
2022-11-01T09:44:29.956Z,30.27
2022-11-01T09:47:08.216Z,25.30
2022-11-01T09:49:41.008Z,31.75
2022-11-01T09:52:14.678Z,27.48
2022-11-01T09:54:41.258Z,27.42
2022-11-01T09:57:07.739Z,26.42
2022-11-01T09:59:46.131Z,32.13
2022-11-01T10:02:36.879Z,36.95
2022-11-01T10:05:42.068Z,30.95
2022-11-01T10:08:14.677Z,33.80
2022-11-01T10:11:12.531Z,36.38
2022-11-01T10:14:10.615Z,44.90
2022-11-01T10:16:49.306Z,40.63
2022-11-01T10:19:19.182Z,44.83
2022-11-01T10:21:51.905Z,27.98
2022-11-01T10:24:23.844Z,27.70
2022-11-01T10:26:56.553Z,33.28
2022-11-01T10:29:37.389Z,29.42
2022-11-01T10:32:09.345Z,32.67
2022-11-01T10:34:39.785Z,31.58
2022-11-01T10:37:34.928Z,34.78
2022-11-01T10:40:10.030Z,30.85
2022-11-01T10:42:37.051Z,29.65
2022-11-01T10:45:08.767Z,32.40
2022-11-01T10:47:35.586Z,27.50
2022-11-01T10:50:10.388Z,33.40
2022-11-01T10:52:52.026Z,31.05
2022-11-01T10:55:29.226Z,34.75
2022-11-01T10:58:03.171Z,39.58
2022-11-01T11:00:32.638Z,40.17
2022-11-01T11:03:02.951Z,33.13
2022-11-01T11:05:31.300Z,35.53
2022-11-01T11:07:57.996Z,31.63
2022-11-01T11:10:28.345Z,43.17
2022-11-01T11:13:05.272Z,39.28
2022-11-01T11:15:47.001Z,32.30
2022-11-01T11:18:24.731Z,37.88
2022-11-01T11:20:57.429Z,36.10
2022-11-01T11:23:27.353Z,35.38
2022-11-01T11:26:01.330Z,38.95
2022-11-01T11:28:32.309Z,41.50
2022-11-01T11:31:15.809Z,34.35
2022-11-01T11:33:53.383Z,32.88
2022-11-01T11:36:38.336Z,44.65
2022-11-01T11:39:05.682Z,36.50
2022-11-01T11:41:36.281Z,40.58
2022-11-01T11:44:03.710Z,35.08
2022-11-01T11:46:30.309Z,39.67
2022-11-01T11:49:01.508Z,35.95
2022-11-01T11:51:30.582Z,36.42
2022-11-01T11:54:21.384Z,35.67
2022-11-01T11:56:52.994Z,35.97
2022-11-01T11:59:29.234Z,43.92
2022-11-01T12:02:02.530Z,35.10
2022-11-01T12:04:41.731Z,45.47
2022-11-01T12:07:30.609Z,45.08
2022-11-01T12:10:02.291Z,42.50
2022-11-01T12:12:30.878Z,33.85
2022-11-01T12:17:36.591Z,33.40
2022-11-01T12:20:18.497Z,36.38
2022-11-01T12:23:02.275Z,35.53
2022-11-01T12:25:29.557Z,35.70
2022-11-01T12:28:00.400Z,37.78
2022-11-01T12:30:30.812Z,33.20
2022-11-01T12:33:01.097Z,35.30
2022-11-01T12:35:48.052Z,35.15
2022-11-01T12:38:29.854Z,42.13
2022-11-01T12:41:01.573Z,39.70
2022-11-01T12:43:43.647Z,35.90
2022-11-01T12:46:22.734Z,46.25
2022-11-01T12:48:59.798Z,39.67
2022-11-01T12:51:31.762Z,43.55
2022-11-01T12:54:13.951Z,41.30
2022-11-01T12:56:40.561Z,37.85
2022-11-01T12:59:12.264Z,38.50
2022-11-01T13:02:12.049Z,38.90
2022-11-01T13:04:52.762Z,41.22
2022-11-01T13:07:52.091Z,36.95
2022-11-01T13:10:33.445Z,39.33
2022-11-01T13:13:18.761Z,44.42
2022-11-01T13:16:02.062Z,36.63
2022-11-01T13:18:51.804Z,38.20
2022-11-01T13:21:27.899Z,36.35
2022-11-01T13:24:05.436Z,40.10
2022-11-01T13:26:37.033Z,37.72
2022-11-01T13:29:22.134Z,42.10
2022-11-01T13:32:04.196Z,39.83
2022-11-01T13:34:49.821Z,35.50
2022-11-01T13:37:23.330Z,34.65
2022-11-01T13:40:07.901Z,33.80
2022-11-01T13:42:40.084Z,36.45
2022-11-01T13:45:12.786Z,40.03
2022-11-01T13:48:20.394Z,33.95
2022-11-01T13:51:14.329Z,39.13
2022-11-01T13:54:02.382Z,32.45
2022-11-01T13:56:31.774Z,36.00
2022-11-01T13:58:58.867Z,40.65
2022-11-01T14:01:32.645Z,42.45
2022-11-01T14:04:12.171Z,36.53
2022-11-01T14:06:41.823Z,39.45
2022-11-01T14:09:23.351Z,42.10
2022-11-01T14:11:54.185Z,38.65
2022-11-01T14:14:29.846Z,41.15
2022-11-01T14:17:20.794Z,32.28
2022-11-01T14:20:10.702Z,43.22
2022-11-01T14:22:38.676Z,38.00
2022-11-01T14:25:11.926Z,40.30
2022-11-01T14:27:48.879Z,38.85
2022-11-01T14:30:24.452Z,37.90
2022-11-01T14:33:03.147Z,41.22
2022-11-01T14:35:29.773Z,38.22
2022-11-01T14:38:00.571Z,51.10
2022-11-01T14:40:41.531Z,43.92
2022-11-01T14:43:30.989Z,33.55
2022-11-01T14:46:17.744Z,48.85
2022-11-01T14:48:59.306Z,47.60
2022-11-01T14:51:46.290Z,37.53
2022-11-01T14:54:17.153Z,38.47
2022-11-01T14:56:50.051Z,45.58
2022-11-01T14:59:21.075Z,44.25
2022-11-01T15:01:51.298Z,44.90
2022-11-01T15:04:24.103Z,39.15
2022-11-01T15:06:51.430Z,33.58
2022-11-01T15:09:23.462Z,33.08
2022-11-01T15:11:52.307Z,31.13
2022-11-01T15:14:37.683Z,32.47
2022-11-01T15:17:07.053Z,31.60
2022-11-01T15:19:38.037Z,33.40
2022-11-01T15:22:06.415Z,35.35
2022-11-01T15:24:34.828Z,29.45
2022-11-01T15:27:15.309Z,38.25
2022-11-01T15:29:45.204Z,29.67
2022-11-01T15:32:29.668Z,36.72
2022-11-01T15:34:59.278Z,42.05
2022-11-01T15:37:32.578Z,53.88
2022-11-01T15:40:27.922Z,47.03
2022-11-01T15:43:02.039Z,46.50
2022-11-01T15:45:37.205Z,41.13
2022-11-01T15:48:09.598Z,43.92
2022-11-01T15:50:39.965Z,41.70
2022-11-01T15:53:14.616Z,42.63
2022-11-01T15:55:45.467Z,32.47
2022-11-01T15:58:24.157Z,40.17
2022-11-01T16:00:53.899Z,23.30
2022-11-01T16:03:27.735Z,42.65
2022-11-01T16:05:59.711Z,38.03
2022-11-01T16:08:52.471Z,38.60
2022-11-01T16:11:22.691Z,44.25
2022-11-01T16:14:03.863Z,36.15
2022-11-01T16:17:04.157Z,33.58
2022-11-01T16:19:45.309Z,35.45
2022-11-01T16:22:41.260Z,41.67
2022-11-01T16:25:08.666Z,45.55
2022-11-01T16:27:38.570Z,31.58
2022-11-01T16:30:10.515Z,37.92
2022-11-01T16:32:37.490Z,37.97
2022-11-01T16:35:33.723Z,34.40
2022-11-01T16:38:00.660Z,37.45
2022-11-01T16:40:30.881Z,48.55
2022-11-01T16:42:59.397Z,40.85
2022-11-01T16:45:26.022Z,42.95
2022-11-01T16:47:58.010Z,46.45
2022-11-01T16:50:24.951Z,40.38
2022-11-01T16:52:51.459Z,46.00
2022-11-01T16:55:18.391Z,49.08
2022-11-01T16:57:47.237Z,43.67
2022-11-01T17:00:15.197Z,35.20
2022-11-01T17:02:42.262Z,27.52
2022-11-01T17:05:19.142Z,25.92
2022-11-01T17:07:45.902Z,25.30
2022-11-01T17:10:15.494Z,25.02
2022-11-01T17:12:42.098Z,26.70
2022-11-01T17:15:11.816Z,17.88
2022-11-01T17:17:39.549Z,25.98
2022-11-01T17:20:06.407Z,19.70
2022-11-01T17:22:36.733Z,29.58
2022-11-01T17:25:04.868Z,27.40
2022-11-01T17:27:31.542Z,21.42
2022-11-01T17:29:58.045Z,19.83
2022-11-01T17:32:24.620Z,21.08
2022-11-01T17:34:51.354Z,25.05
2022-11-01T17:37:17.947Z,32.95
2022-11-01T17:39:44.555Z,22.83
2022-11-01T17:42:11.509Z,25.80
2022-11-01T17:44:38.062Z,21.05
2022-11-01T17:47:04.610Z,18.77
2022-11-01T17:49:31.096Z,19.23
2022-11-01T17:51:57.694Z,16.92
2022-11-01T17:56:52.880Z,20.67
2022-11-01T17:59:19.619Z,25.15
2022-11-01T18:01:46.317Z,26.67
2022-11-01T18:04:13.132Z,18.83
2022-11-01T18:06:43.738Z,18.67
2022-11-01T18:09:19.634Z,19.02
2022-11-01T18:11:53.721Z,21.08
2022-11-01T18:14:34.122Z,23.05
2022-11-01T18:17:07.833Z,27.35
2022-11-01T18:19:57.736Z,22.38
2022-11-01T18:22:57.525Z,30.52
2022-11-01T18:25:47.291Z,26.55
2022-11-01T18:28:17.286Z,34.75
2022-11-01T18:30:47.497Z,28.38
2022-11-01T18:33:27.809Z,24.95
2022-11-01T18:36:01.468Z,27.25
2022-11-01T18:38:30.891Z,26.15
2022-11-01T18:41:00.575Z,30.63
2022-11-01T18:43:31.535Z,26.20
2022-11-01T18:48:46.098Z,25.95
2022-11-01T18:51:18.359Z,28.88
2022-11-01T18:53:45.990Z,27.77
2022-11-01T18:56:25.665Z,26.52
2022-11-01T18:58:53.946Z,25.38
2022-11-01T19:01:33.396Z,36.28
2022-11-01T19:04:29.891Z,28.35
2022-11-01T19:07:04.843Z,43.78
2022-11-01T19:09:38.143Z,27.15
2022-11-01T19:12:17.526Z,23.65
2022-11-01T19:14:48.646Z,25.58
2022-11-01T19:17:19.806Z,27.45
2022-11-01T19:19:47.167Z,21.67
2022-11-01T19:22:31.402Z,27.02
2022-11-01T19:24:59.464Z,22.52
2022-11-01T19:27:26.580Z,20.67
2022-11-01T19:29:58.131Z,23.50
2022-11-01T19:32:25.238Z,21.65
2022-11-01T19:34:53.530Z,20.77
2022-11-01T19:37:33.049Z,28.77
2022-11-01T19:40:06.875Z,28.67
2022-11-01T19:42:35.108Z,22.95
2022-11-01T19:45:28.867Z,22.30
2022-11-01T19:47:55.625Z,24.77
2022-11-01T19:50:31.452Z,25.23
2022-11-01T19:52:59.122Z,22.52
2022-11-01T19:55:25.661Z,26.00
2022-11-01T19:57:52.660Z,18.15
2022-11-01T20:00:21.492Z,24.05
2022-11-01T20:05:30.017Z,26.10
2022-11-01T20:08:18.771Z,29.75
2022-11-01T20:10:45.293Z,24.58
2022-11-01T20:13:11.811Z,30.88
2022-11-01T20:15:38.383Z,24.02
2022-11-01T20:18:05.991Z,25.58
2022-11-01T20:20:32.868Z,24.10
2022-11-01T20:23:20.192Z,24.67
2022-11-01T20:25:45.971Z,26.08
2022-11-01T20:28:12.710Z,29.80
2022-11-01T20:30:39.321Z,28.65
2022-11-01T20:33:06.291Z,23.33
2022-11-01T20:35:33.093Z,25.67
2022-11-01T20:37:59.706Z,20.30
2022-11-01T20:40:26.712Z,32.42
2022-11-01T20:42:54.374Z,30.15
2022-11-01T20:45:20.924Z,28.90
2022-11-01T20:47:47.523Z,28.30
2022-11-01T20:50:16.282Z,24.95
2022-11-01T20:55:11.878Z,23.98
2022-11-01T20:57:38.938Z,24.38
2022-11-01T21:00:11.738Z,22.63
2022-11-01T21:02:38.394Z,18.15
2022-11-01T21:05:28.804Z,18.73
2022-11-01T21:08:11.592Z,23.00
2022-11-01T21:10:40.228Z,23.85
2022-11-01T21:13:27.677Z,19.52
2022-11-01T21:15:57.292Z,23.60
2022-11-01T21:18:34.497Z,19.63
2022-11-01T21:21:25.293Z,20.60
2022-11-01T21:23:51.894Z,21.25
2022-11-01T21:26:25.491Z,19.33
2022-11-01T21:28:54.481Z,22.35
2022-11-01T21:31:27.136Z,15.00
2022-11-01T21:34:21.663Z,14.40
2022-11-01T21:36:49.170Z,16.00
2022-11-01T21:39:33.107Z,18.42
2022-11-01T21:42:30.782Z,18.75
2022-11-01T21:44:57.980Z,23.27
2022-11-01T21:47:29.573Z,20.63
2022-11-01T21:49:56.892Z,23.52
2022-11-01T21:52:23.701Z,17.90
2022-11-01T21:54:50.977Z,23.63
2022-11-01T21:57:17.828Z,23.27
2022-11-01T21:59:44.693Z,25.58
2022-11-01T22:02:13.687Z,24.98
2022-11-01T22:04:40.684Z,33.10
2022-11-01T22:07:09.735Z,34.83
2022-11-01T22:09:37.126Z,20.33
2022-11-01T22:12:04.259Z,27.75
2022-11-01T22:14:31.669Z,26.00
2022-11-01T22:16:59.038Z,27.52
2022-11-01T22:19:26.676Z,32.67
2022-11-01T22:21:53.652Z,27.67
2022-11-01T22:24:20.295Z,26.58
2022-11-01T22:26:46.874Z,35.13
2022-11-01T22:29:13.656Z,19.63
2022-11-01T22:31:40.418Z,19.10
2022-11-01T22:34:07.078Z,25.48
2022-11-01T22:36:36.210Z,23.48
2022-11-01T22:39:25.172Z,14.98
2022-11-01T22:41:52.207Z,21.95
2022-11-01T22:44:31.281Z,16.40
2022-11-01T22:47:02.368Z,18.08
2022-11-01T22:49:34.989Z,16.90
2022-11-01T22:52:19.748Z,18.35
2022-11-01T22:55:00.246Z,29.58
2022-11-01T22:57:32.658Z,20.73
2022-11-01T23:00:02.102Z,18.52
2022-11-01T23:02:33.656Z,23.90
2022-11-01T23:05:22.134Z,20.77
2022-11-01T23:07:51.200Z,16.95
2022-11-01T23:10:30.863Z,18.88
2022-11-01T23:13:21.988Z,28.02
2022-11-01T23:15:51.137Z,22.38
2022-11-01T23:18:27.769Z,16.20
2022-11-01T23:20:59.606Z,16.77
2022-11-01T23:23:26.998Z,16.95
2022-11-01T23:25:55.455Z,17.77
2022-11-01T23:28:24.133Z,15.43
2022-11-01T23:30:51.748Z,14.55
2022-11-01T23:33:20.645Z,19.35
2022-11-01T23:38:23.196Z,18.35
2022-11-01T23:40:52.579Z,13.98
2022-11-01T23:43:33.884Z,15.27
2022-11-01T23:46:01.878Z,18.13
2022-11-01T23:48:28.760Z,15.27
2022-11-01T23:50:56.635Z,15.75
2022-11-01T23:53:32.147Z,12.80
2022-11-01T23:56:00.114Z,15.77
2022-11-01T23:58:31.018Z,14.25
